createdAt,value
2022-11-03T00:00:20.347Z,26.58
2022-11-03T00:01:21.822Z,29.98
2022-11-03T00:02:23.436Z,32.38
2022-11-03T00:03:24.980Z,31.70
2022-11-03T00:04:26.497Z,30.92
2022-11-03T00:05:27.918Z,26.52
2022-11-03T00:06:29.400Z,32.63
2022-11-03T00:07:30.872Z,31.70
2022-11-03T00:08:33.950Z,32.35
2022-11-03T00:09:35.901Z,39.92
2022-11-03T00:10:37.340Z,33.05
2022-11-03T00:11:42.230Z,36.45
2022-11-03T00:12:43.675Z,32.92
2022-11-03T00:13:45.166Z,28.52
2022-11-03T00:14:46.619Z,45.47
2022-11-03T00:15:48.608Z,67.20
2022-11-03T00:16:50.047Z,36.17
2022-11-03T00:17:51.537Z,36.67
2022-11-03T00:18:53.297Z,36.00
2022-11-03T00:19:54.768Z,35.85
2022-11-03T00:20:58.258Z,31.48
2022-11-03T00:21:59.728Z,41.35
2022-11-03T00:23:01.161Z,39.15
2022-11-03T00:24:03.202Z,56.33
2022-11-03T00:25:05.499Z,37.92
2022-11-03T00:26:09.712Z,346.25
2022-11-03T00:27:12.465Z,530.53
2022-11-03T00:28:13.923Z,526.63
2022-11-03T00:29:15.480Z,120.07
2022-11-03T00:30:17.009Z,207.73
2022-11-03T00:31:20.318Z,247.85
2022-11-03T00:32:22.064Z,231.52
2022-11-03T00:33:23.536Z,284.27
2022-11-03T00:34:24.946Z,511.88
2022-11-03T00:35:26.386Z,267.95
2022-11-03T00:36:29.910Z,345.45
2022-11-03T00:37:31.401Z,421.63
2022-11-03T00:38:33.328Z,386.23
2022-11-03T00:39:34.847Z,356.50
2022-11-03T00:40:36.260Z,484.10
2022-11-03T00:41:37.882Z,609.13
2022-11-03T00:42:40.654Z,567.30
2022-11-03T00:43:42.178Z,715.38
2022-11-03T00:44:43.589Z,801.45
2022-11-03T00:45:45.055Z,646.88
2022-11-03T00:46:46.498Z,574.05
2022-11-03T00:47:48.007Z,507.90
2022-11-03T00:48:49.920Z,457.73
2022-11-03T00:49:51.365Z,391.75
2022-11-03T00:50:52.804Z,463.25
2022-11-03T00:51:54.249Z,497.58
2022-11-03T00:52:55.688Z,404.73
2022-11-03T00:53:58.375Z,293.90
2022-11-03T00:54:59.816Z,420.30
2022-11-03T00:56:01.722Z,389.17
2022-11-03T00:57:03.362Z,491.88
2022-11-03T00:58:06.143Z,302.58
2022-11-03T00:59:09.351Z,490.33
2022-11-03T01:00:11.965Z,502.67
2022-11-03T01:01:15.641Z,527.45
2022-11-03T01:02:17.277Z,710.75
2022-11-03T01:03:18.806Z,697.47
2022-11-03T01:04:20.323Z,591.83
2022-11-03T01:05:21.768Z,626.45
2022-11-03T01:06:23.200Z,653.25
2022-11-03T01:07:24.647Z,483.25
2022-11-03T01:08:27.705Z,359.00
2022-11-03T01:09:30.946Z,483.88
2022-11-03T01:10:36.326Z,556.72
2022-11-03T01:11:37.807Z,313.52
2022-11-03T01:12:39.242Z,491.15
2022-11-03T01:13:42.011Z,600.80
2022-11-03T01:14:45.840Z,606.85
2022-11-03T01:15:47.285Z,163.43
2022-11-03T01:16:48.758Z,378.77
2022-11-03T01:17:50.297Z,510.20
2022-11-03T01:18:51.743Z,570.08
2022-11-03T01:19:53.728Z,544.15
2022-11-03T01:20:55.695Z,459.40
2022-11-03T01:21:57.150Z,358.02
2022-11-03T01:22:58.563Z,156.32
2022-11-03T01:24:00.283Z,146.35
2022-11-03T01:25:01.709Z,78.50
2022-11-03T01:26:04.408Z,62.53
2022-11-03T01:27:05.858Z,106.32
2022-11-03T01:28:07.307Z,236.18
2022-11-03T01:29:10.139Z,448.30
2022-11-03T01:30:12.101Z,577.78
2022-11-03T01:31:15.766Z,403.83
2022-11-03T01:32:17.300Z,606.13
2022-11-03T01:33:18.753Z,526.92
2022-11-03T01:34:21.390Z,382.55
2022-11-03T01:35:22.832Z,586.92
2022-11-03T01:36:24.758Z,507.92
2022-11-03T01:37:26.227Z,546.58
2022-11-03T01:38:30.987Z,460.55
2022-11-03T01:39:32.452Z,515.15
2022-11-03T01:40:33.908Z,527.65
2022-11-03T01:41:35.429Z,611.38
2022-11-03T01:42:36.872Z,759.88
2022-11-03T01:43:39.788Z,867.80
2022-11-03T01:44:46.399Z,981.63
2022-11-03T01:45:51.065Z,970.15
2022-11-03T01:46:56.889Z,370.27
2022-11-03T01:49:09.667Z,162.00
2022-11-03T01:50:16.447Z,115.57
2022-11-03T01:51:22.603Z,88.10
2022-11-03T01:52:27.752Z,79.13
2022-11-03T01:53:30.390Z,110.70
2022-11-03T01:54:34.262Z,84.57
2022-11-03T01:55:37.847Z,83.80
2022-11-03T01:56:42.861Z,293.70
2022-11-03T01:57:50.581Z,198.23
2022-11-03T01:58:55.531Z,107.28
2022-11-03T01:59:59.467Z,239.20
2022-11-03T02:01:02.457Z,397.77
2022-11-03T02:02:04.487Z,1022.13
2022-11-03T02:03:06.535Z,1078.30
2022-11-03T02:04:12.845Z,1157.15
2022-11-03T02:05:18.190Z,954.58
2022-11-03T02:06:21.503Z,737.25
2022-11-03T02:07:27.991Z,778.72
2022-11-03T02:08:35.024Z,594.05
2022-11-03T02:09:36.471Z,682.67
2022-11-03T02:10:38.523Z,743.13
2022-11-03T02:11:40.062Z,640.15
2022-11-03T02:12:43.202Z,150.75
2022-11-03T02:13:44.650Z,126.28
2022-11-03T02:14:54.010Z,205.07
2022-11-03T02:15:59.346Z,384.55
2022-11-03T02:17:04.184Z,889.72
2022-11-03T02:18:06.848Z,907.42
2022-11-03T02:19:21.307Z,927.63
2022-11-03T02:20:25.861Z,563.58
2022-11-03T02:21:30.954Z,592.03
2022-11-03T02:22:55.259Z,439.88
2022-11-03T02:24:04.387Z,580.25
2022-11-03T02:25:16.155Z,650.30
2022-11-03T02:26:19.287Z,483.92
2022-11-03T02:27:21.208Z,411.08
2022-11-03T02:28:25.438Z,629.65
2022-11-03T02:29:26.963Z,706.67
2022-11-03T02:30:34.012Z,721.95
2022-11-03T02:31:41.121Z,807.22
2022-11-03T02:32:57.194Z,497.45
2022-11-03T02:34:06.438Z,334.88
2022-11-03T02:35:15.815Z,347.08
2022-11-03T02:36:22.739Z,391.90
2022-11-03T02:37:28.811Z,383.20
2022-11-03T02:38:34.797Z,109.70
2022-11-03T02:39:40.346Z,151.75
2022-11-03T02:40:46.444Z,396.73
2022-11-03T02:41:52.508Z,719.15
2022-11-03T02:42:54.747Z,792.00
2022-11-03T02:43:57.538Z,698.80
2022-11-03T02:45:02.256Z,561.25
2022-11-03T02:46:06.087Z,726.05
2022-11-03T02:47:11.084Z,629.80
2022-11-03T02:48:15.355Z,703.55
2022-11-03T02:49:16.800Z,847.72
2022-11-03T02:50:18.266Z,907.70
2022-11-03T02:51:19.717Z,715.72
2022-11-03T02:52:34.546Z,858.08
2022-11-03T02:53:39.974Z,722.53
2022-11-03T02:54:45.224Z,537.58
2022-11-03T02:55:53.632Z,573.63
2022-11-03T02:57:02.274Z,513.88
2022-11-03T02:58:11.614Z,515.85
2022-11-03T02:59:17.936Z,539.00
2022-11-03T03:00:20.870Z,369.17
2022-11-03T03:01:29.005Z,101.22
2022-11-03T03:02:37.734Z,542.78
2022-11-03T03:03:43.185Z,417.42
2022-11-03T03:04:51.371Z,674.30
2022-11-03T03:05:59.475Z,259.92
2022-11-03T03:07:05.067Z,357.15
2022-11-03T03:08:10.282Z,521.38
2022-11-03T03:09:18.529Z,479.23
2022-11-03T03:10:23.620Z,718.70
2022-11-03T03:11:25.202Z,482.30
2022-11-03T03:12:30.923Z,552.05
2022-11-03T03:13:32.812Z,807.80
2022-11-03T03:14:37.495Z,232.85
2022-11-03T03:15:45.165Z,516.78
2022-11-03T03:16:55.082Z,144.48
2022-11-03T03:18:07.171Z,338.88
2022-11-03T03:19:18.603Z,500.10
2022-11-03T03:21:29.330Z,75.07
2022-11-03T03:22:38.590Z,89.90
2022-11-03T03:23:45.933Z,68.30
2022-11-03T03:24:53.358Z,113.28
2022-11-03T03:25:59.878Z,371.13
2022-11-03T03:27:05.210Z,449.23
2022-11-03T03:28:11.227Z,318.75
2022-11-03T03:29:18.004Z,115.50
2022-11-03T03:30:19.693Z,73.50
2022-11-03T03:31:24.820Z,48.63
2022-11-03T03:32:30.398Z,86.65
2022-11-03T03:33:33.585Z,84.95
2022-11-03T03:34:39.460Z,205.65
2022-11-03T03:35:44.445Z,621.22
2022-11-03T03:36:49.083Z,1071.07
2022-11-03T03:37:53.160Z,942.35
2022-11-03T03:38:59.095Z,1126.75
2022-11-03T03:40:05.341Z,1106.00
2022-11-03T03:41:10.942Z,1011.50
2022-11-03T03:42:15.596Z,725.00
2022-11-03T03:43:21.763Z,371.15
2022-11-03T03:44:24.672Z,626.03
2022-11-03T03:45:26.731Z,548.92
2022-11-03T03:46:34.833Z,568.00
2022-11-03T03:47:36.600Z,733.03
2022-11-03T03:48:38.102Z,510.50
2022-11-03T03:49:39.885Z,594.53
2022-11-03T03:50:43.792Z,425.25
2022-11-03T03:51:46.474Z,440.98
2022-11-03T03:52:48.847Z,732.95
2022-11-03T03:53:50.771Z,688.75
2022-11-03T03:54:52.522Z,889.65
2022-11-03T03:55:54.129Z,1075.80
2022-11-03T03:57:00.608Z,1018.22
2022-11-03T03:58:04.042Z,961.83
2022-11-03T03:59:07.019Z,871.20
2022-11-03T04:00:12.310Z,926.50
2022-11-03T04:01:13.767Z,917.45
2022-11-03T04:02:16.065Z,767.90
2022-11-03T04:03:19.757Z,667.97
2022-11-03T04:04:21.378Z,734.88
2022-11-03T04:05:22.821Z,735.78
2022-11-03T04:06:24.236Z,705.53
2022-11-03T04:07:25.710Z,602.38
2022-11-03T04:08:27.174Z,394.38
2022-11-03T04:09:28.578Z,552.45
2022-11-03T04:10:30.003Z,456.55
2022-11-03T04:11:31.433Z,435.25
2022-11-03T04:12:32.909Z,390.55
2022-11-03T04:13:34.384Z,369.38
2022-11-03T04:14:37.151Z,409.08
2022-11-03T04:15:38.601Z,494.08
2022-11-03T04:16:40.048Z,671.63
2022-11-03T04:17:44.304Z,848.88
2022-11-03T04:18:45.730Z,703.60
2022-11-03T04:19:47.126Z,679.53
2022-11-03T04:20:48.568Z,611.08
2022-11-03T04:21:50.078Z,655.58
2022-11-03T04:22:51.508Z,670.92
2022-11-03T04:23:52.940Z,619.75
2022-11-03T04:24:54.393Z,486.45
2022-11-03T04:25:57.114Z,526.15
2022-11-03T04:27:18.224Z,435.73
2022-11-03T04:28:19.685Z,443.95
2022-11-03T04:29:21.106Z,378.42
2022-11-03T04:30:24.500Z,354.75
2022-11-03T04:31:26.953Z,446.95
2022-11-03T04:32:28.822Z,384.80
2022-11-03T04:33:30.333Z,333.92
2022-11-03T04:34:31.724Z,319.73
2022-11-03T04:35:33.148Z,213.80
2022-11-03T04:36:34.592Z,263.88
2022-11-03T04:37:36.034Z,260.75
2022-11-03T04:38:37.916Z,352.15
2022-11-03T04:39:39.849Z,361.02
2022-11-03T04:40:43.099Z,388.35
2022-11-03T04:41:44.966Z,432.10
2022-11-03T04:42:46.462Z,350.90
2022-11-03T04:43:49.801Z,308.70
2022-11-03T04:44:51.422Z,326.80
2022-11-03T04:45:54.179Z,377.15
2022-11-03T04:46:55.646Z,310.10
2022-11-03T04:47:59.612Z,207.13
2022-11-03T04:49:03.975Z,254.43
2022-11-03T04:50:14.918Z,243.00
2022-11-03T04:51:18.100Z,316.08
2022-11-03T04:52:22.036Z,272.23
2022-11-03T04:53:24.323Z,333.75
2022-11-03T04:54:26.144Z,308.63
2022-11-03T04:55:27.607Z,288.50
2022-11-03T04:56:30.050Z,259.13
2022-11-03T04:57:31.505Z,331.13
2022-11-03T04:58:35.199Z,230.68
2022-11-03T04:59:36.688Z,273.02
2022-11-03T05:00:39.359Z,216.95
2022-11-03T05:01:44.105Z,179.38
2022-11-03T05:02:50.254Z,175.93
2022-11-03T05:03:54.808Z,230.55
2022-11-03T05:04:56.363Z,136.35
2022-11-03T05:06:01.387Z,135.30
2022-11-03T05:07:02.922Z,163.55
2022-11-03T05:08:08.657Z,214.05
2022-11-03T05:09:14.797Z,254.98
2022-11-03T05:10:19.093Z,309.50
2022-11-03T05:11:30.252Z,297.75
2022-11-03T05:12:31.773Z,331.15
2022-11-03T05:13:33.212Z,299.13
2022-11-03T05:14:36.735Z,346.88
2022-11-03T05:15:43.389Z,344.65
2022-11-03T05:16:46.764Z,303.80
2022-11-03T05:17:48.314Z,304.48
2022-11-03T05:18:50.070Z,279.77
2022-11-03T05:19:56.462Z,283.50
2022-11-03T05:21:00.131Z,304.77
2022-11-03T05:22:03.727Z,317.05
2022-11-03T05:23:05.821Z,298.85
2022-11-03T05:24:13.084Z,319.13
2022-11-03T05:25:38.466Z,337.25
2022-11-03T05:26:40.331Z,160.40
2022-11-03T05:27:41.826Z,229.45
2022-11-03T05:28:46.063Z,289.05
2022-11-03T05:29:49.497Z,254.35
2022-11-03T05:30:51.968Z,260.60
2022-11-03T05:31:56.334Z,166.73
2022-11-03T05:32:58.156Z,96.22
2022-11-03T05:34:02.869Z,126.50
2022-11-03T05:35:16.011Z,139.00
2022-11-03T05:36:21.581Z,208.40
2022-11-03T05:37:27.399Z,294.65
2022-11-03T05:38:31.516Z,250.50
2022-11-03T05:39:36.760Z,247.15
2022-11-03T05:40:38.200Z,208.05
2022-11-03T05:41:39.677Z,280.23
2022-11-03T05:42:43.827Z,382.63
2022-11-03T05:43:47.501Z,294.10
2022-11-03T05:44:50.270Z,317.77
2022-11-03T05:45:55.283Z,329.85
2022-11-03T05:47:00.976Z,304.58
2022-11-03T05:48:14.384Z,297.40
2022-11-03T05:49:15.930Z,346.30
2022-11-03T05:50:20.946Z,323.63
2022-11-03T05:51:28.420Z,333.30
2022-11-03T05:52:30.030Z,385.13
2022-11-03T05:53:36.682Z,275.75
2022-11-03T05:54:38.174Z,359.55
2022-11-03T05:55:40.061Z,248.45
2022-11-03T05:56:41.564Z,305.48
2022-11-03T05:57:43.007Z,413.85
2022-11-03T05:58:46.098Z,425.02
2022-11-03T05:59:51.229Z,449.00
2022-11-03T06:00:53.220Z,478.67
2022-11-03T06:01:59.053Z,352.52
2022-11-03T06:03:02.127Z,379.85
2022-11-03T06:04:15.250Z,415.02
2022-11-03T06:05:20.587Z,354.17
2022-11-03T06:06:30.812Z,386.58
2022-11-03T06:07:34.308Z,374.50
2022-11-03T06:08:38.945Z,357.42
2022-11-03T06:09:43.159Z,343.40
2022-11-03T06:10:49.501Z,345.48
2022-11-03T06:11:53.330Z,413.75
2022-11-03T06:12:56.867Z,296.42
2022-11-03T06:13:59.240Z,193.35
2022-11-03T06:15:00.665Z,221.15
2022-11-03T06:16:05.387Z,244.30
2022-11-03T06:17:11.992Z,325.35
2022-11-03T06:18:18.715Z,314.92
2022-11-03T06:19:26.806Z,321.85
2022-11-03T06:20:28.794Z,261.35
2022-11-03T06:21:30.569Z,178.95
2022-11-03T06:22:36.749Z,328.30
2022-11-03T06:23:39.271Z,291.35
2022-11-03T06:24:40.982Z,287.08
2022-11-03T06:25:42.824Z,250.35
2022-11-03T06:26:46.290Z,237.13
2022-11-03T06:27:47.848Z,305.77
2022-11-03T06:28:49.773Z,317.92
2022-11-03T06:29:57.185Z,324.70
2022-11-03T06:30:58.923Z,343.65
2022-11-03T06:32:01.004Z,267.45
2022-11-03T06:33:10.552Z,349.50
2022-11-03T06:34:22.446Z,278.55
2022-11-03T06:35:24.120Z,364.95
2022-11-03T06:36:29.962Z,395.95
2022-11-03T06:37:33.033Z,401.42
2022-11-03T06:38:35.183Z,377.00
2022-11-03T06:39:36.698Z,379.42
2022-11-03T06:40:38.295Z,369.30
2022-11-03T06:41:39.879Z,396.77
2022-11-03T06:42:41.978Z,350.55
2022-11-03T06:43:43.549Z,372.55
2022-11-03T06:44:47.170Z,373.02
2022-11-03T06:45:50.760Z,336.40
2022-11-03T06:46:54.738Z,360.95
2022-11-03T06:47:56.245Z,316.42
2022-11-03T06:49:00.238Z,262.40
2022-11-03T06:50:19.792Z,251.48
2022-11-03T06:51:23.883Z,184.75
2022-11-03T06:52:28.420Z,338.05
2022-11-03T06:53:33.519Z,280.02
2022-11-03T06:54:35.046Z,266.73
2022-11-03T06:55:37.723Z,461.55
2022-11-03T06:56:39.252Z,146.68
2022-11-03T06:57:43.917Z,201.85
2022-11-03T06:58:46.559Z,158.13
2022-11-03T06:59:53.535Z,162.90
2022-11-03T07:01:12.496Z,125.03
2022-11-03T07:02:34.219Z,244.32
2022-11-03T07:04:37.040Z,187.45
2022-11-03T07:05:40.344Z,174.75
2022-11-03T07:06:43.290Z,201.73
2022-11-03T07:07:44.758Z,118.80
2022-11-03T07:08:49.671Z,219.20
2022-11-03T07:09:51.116Z,271.48
2022-11-03T07:11:00.081Z,146.35
2022-11-03T07:12:01.538Z,272.58
2022-11-03T07:13:13.204Z,316.85
2022-11-03T07:14:18.171Z,264.48
2022-11-03T07:15:25.693Z,281.02
2022-11-03T07:16:31.218Z,319.17
2022-11-03T07:17:34.238Z,203.07
2022-11-03T07:18:41.008Z,191.73
2022-11-03T07:19:45.439Z,179.93
2022-11-03T07:20:48.671Z,217.60
2022-11-03T07:21:52.740Z,136.65
2022-11-03T07:22:56.362Z,156.40
2022-11-03T07:24:00.507Z,204.07
2022-11-03T07:25:03.881Z,241.15
2022-11-03T07:26:08.448Z,262.83
2022-11-03T07:27:16.166Z,300.33
2022-11-03T07:28:17.803Z,296.17
2022-11-03T07:29:24.955Z,145.02
2022-11-03T07:30:29.296Z,344.73
2022-11-03T07:31:31.692Z,336.77
2022-11-03T07:32:34.262Z,370.10
2022-11-03T07:33:35.705Z,260.73
2022-11-03T07:34:37.145Z,259.00
2022-11-03T07:36:13.227Z,244.95
2022-11-03T07:37:05.309Z,252.40
2022-11-03T07:38:13.112Z,99.55
2022-11-03T07:39:19.072Z,218.68
2022-11-03T07:40:23.444Z,378.73
2022-11-03T07:41:32.809Z,408.13
2022-11-03T07:42:36.072Z,388.38
2022-11-03T07:43:37.494Z,250.02
2022-11-03T07:44:40.263Z,253.50
2022-11-03T07:45:43.607Z,303.20
2022-11-03T07:46:45.061Z,282.05
2022-11-03T07:47:46.478Z,206.02
2022-11-03T07:48:48.976Z,216.38
2022-11-03T07:49:50.437Z,273.23
2022-11-03T07:50:53.892Z,193.68
2022-11-03T07:51:56.605Z,415.35
2022-11-03T07:52:59.648Z,282.25
2022-11-03T07:54:09.167Z,201.93
2022-11-03T07:55:13.597Z,144.18
2022-11-03T07:56:19.146Z,59.97
2022-11-03T07:57:24.578Z,289.63
2022-11-03T07:58:34.802Z,222.80
2022-11-03T07:59:38.912Z,151.50
2022-11-03T08:00:40.395Z,157.65
2022-11-03T08:01:43.857Z,216.70
2022-11-03T08:02:50.078Z,392.48
2022-11-03T08:03:52.656Z,134.52
2022-11-03T08:04:54.063Z,156.77
2022-11-03T08:05:55.465Z,149.02
2022-11-03T08:06:57.300Z,403.10
2022-11-03T08:08:00.105Z,132.52
2022-11-03T08:09:01.684Z,335.02
2022-11-03T08:10:03.415Z,191.60
2022-11-03T08:11:05.590Z,375.65
2022-11-03T08:12:07.330Z,285.00
2022-11-03T08:13:08.976Z,293.80
2022-11-03T08:14:10.586Z,357.00
2022-11-03T08:15:12.019Z,284.17
2022-11-03T08:16:13.426Z,360.73
2022-11-03T08:17:14.990Z,349.02
2022-11-03T08:18:16.443Z,93.45
2022-11-03T08:19:17.872Z,228.48
2022-11-03T08:20:19.312Z,147.23
2022-11-03T08:21:20.746Z,312.55
2022-11-03T08:22:22.174Z,330.35
2022-11-03T08:23:26.336Z,193.13
2022-11-03T08:24:28.128Z,292.88
2022-11-03T08:25:29.580Z,201.85
2022-11-03T08:26:31.004Z,201.73
2022-11-03T08:27:32.488Z,361.95
2022-11-03T08:28:34.341Z,91.20
2022-11-03T08:29:35.840Z,402.45
2022-11-03T08:30:37.278Z,305.90
2022-11-03T08:31:38.751Z,231.55
2022-11-03T08:32:40.182Z,123.43
2022-11-03T08:33:41.651Z,396.55
2022-11-03T08:34:43.228Z,312.98
2022-11-03T08:35:44.700Z,93.38
2022-11-03T08:36:46.518Z,93.45
2022-11-03T08:37:48.011Z,467.20
2022-11-03T08:38:50.832Z,665.95
2022-11-03T08:39:52.242Z,223.60
2022-11-03T08:40:55.388Z,222.63
2022-11-03T08:41:56.909Z,195.93
2022-11-03T08:42:58.544Z,90.93
2022-11-03T08:43:59.968Z,260.35
2022-11-03T08:45:01.836Z,300.00
2022-11-03T08:46:15.466Z,283.60
2022-11-03T08:47:18.999Z,321.70
2022-11-03T08:48:20.734Z,373.73
2022-11-03T08:49:22.162Z,294.67
2022-11-03T08:50:23.986Z,292.60
2022-11-03T08:51:25.443Z,361.25
2022-11-03T08:52:26.931Z,117.05
2022-11-03T08:53:28.386Z,234.27
2022-11-03T08:54:31.145Z,119.07
2022-11-03T08:55:32.597Z,205.35
2022-11-03T08:56:34.051Z,321.42
2022-11-03T08:57:35.475Z,308.65
2022-11-03T08:58:36.907Z,143.45
2022-11-03T08:59:38.340Z,244.80
2022-11-03T09:00:41.168Z,250.90
2022-11-03T09:01:42.938Z,301.40
2022-11-03T09:02:44.888Z,228.10
2022-11-03T09:03:46.465Z,248.88
2022-11-03T09:04:48.054Z,100.80
2022-11-03T09:05:49.779Z,291.95
2022-11-03T09:06:51.214Z,370.00
2022-11-03T09:10:42.189Z,189.55
2022-11-03T09:11:43.962Z,81.38
2022-11-03T09:12:45.417Z,228.35
2022-11-03T09:13:46.839Z,264.33
2022-11-03T09:14:48.331Z,293.77
2022-11-03T09:15:49.956Z,271.48
2022-11-03T09:16:51.440Z,301.35
2022-11-03T09:17:53.000Z,258.40
2022-11-03T09:18:54.469Z,228.50
2022-11-03T09:19:55.920Z,219.85
2022-11-03T09:20:57.331Z,248.38
2022-11-03T09:21:58.783Z,208.15
2022-11-03T09:23:00.684Z,197.70
2022-11-03T09:24:02.141Z,187.65
2022-11-03T09:25:03.960Z,205.30
2022-11-03T09:26:06.848Z,177.32
2022-11-03T09:27:08.491Z,207.00
2022-11-03T09:28:10.204Z,275.20
2022-11-03T09:29:11.821Z,257.38
2022-11-03T09:30:14.307Z,194.50
2022-11-03T09:31:16.220Z,122.88
2022-11-03T09:32:22.768Z,246.93
2022-11-03T09:33:24.876Z,191.18
2022-11-03T09:34:26.294Z,144.27
2022-11-03T09:35:27.716Z,154.23
2022-11-03T09:36:29.153Z,171.93
2022-11-03T09:37:31.668Z,246.65
2022-11-03T09:38:33.117Z,147.48
2022-11-03T09:39:34.619Z,199.65
2022-11-03T09:40:36.301Z,137.23
2022-11-03T09:41:57.946Z,227.88
2022-11-03T09:43:00.569Z,212.35
2022-11-03T09:44:02.474Z,141.80
2022-11-03T09:45:04.894Z,250.30
2022-11-03T09:46:06.356Z,186.02
2022-11-03T09:47:17.300Z,75.75
2022-11-03T09:48:18.768Z,68.20
2022-11-03T09:49:21.234Z,90.30
2022-11-03T09:50:22.928Z,60.85
2022-11-03T09:51:26.906Z,91.53
2022-11-03T09:52:28.376Z,144.18
2022-11-03T09:53:30.955Z,71.53
2022-11-03T09:54:32.699Z,102.47
2022-11-03T09:55:35.035Z,113.22
2022-11-03T09:56:36.563Z,157.80
2022-11-03T09:57:39.304Z,200.63
2022-11-03T09:58:41.244Z,149.13
2022-11-03T09:59:44.710Z,126.40
2022-11-03T10:00:46.320Z,211.88
2022-11-03T10:01:50.237Z,73.70
2022-11-03T10:02:51.734Z,135.18
2022-11-03T10:03:57.334Z,219.82
2022-11-03T10:05:04.282Z,174.10
2022-11-03T10:06:11.037Z,166.52
2022-11-03T10:07:15.883Z,255.55
2022-11-03T10:08:24.099Z,236.27
2022-11-03T10:09:27.749Z,139.00
2022-11-03T10:10:30.218Z,110.28
2022-11-03T10:11:31.700Z,78.43
2022-11-03T10:12:37.325Z,83.10
2022-11-03T10:13:42.495Z,87.63
2022-11-03T10:14:45.843Z,93.43
2022-11-03T10:15:47.297Z,147.30
2022-11-03T10:16:55.720Z,119.75
2022-11-03T10:17:57.333Z,127.32
2022-11-03T10:18:58.862Z,213.27
2022-11-03T10:20:01.945Z,171.70
2022-11-03T10:21:06.052Z,196.63
2022-11-03T10:22:07.659Z,117.35
2022-11-03T10:23:09.403Z,111.47
2022-11-03T10:24:11.679Z,106.63
2022-11-03T10:25:33.294Z,122.03
2022-11-03T10:26:44.267Z,41.25
2022-11-03T10:27:45.733Z,178.35
2022-11-03T10:28:59.720Z,65.07
2022-11-03T10:30:06.805Z,50.33
2022-11-03T10:31:19.666Z,81.28
2022-11-03T10:32:30.129Z,65.50
2022-11-03T10:33:33.201Z,89.85
2022-11-03T10:34:36.370Z,95.95
2022-11-03T10:35:37.815Z,97.03
2022-11-03T10:36:39.259Z,101.78
2022-11-03T10:37:40.698Z,65.43
2022-11-03T10:38:42.401Z,167.77
2022-11-03T10:39:44.741Z,191.98
2022-11-03T10:40:48.454Z,131.05
2022-11-03T10:41:56.221Z,116.00
2022-11-03T10:42:58.790Z,200.60
2022-11-03T10:44:04.167Z,91.60
2022-11-03T10:45:15.734Z,120.13
2022-11-03T10:47:41.306Z,67.55
2022-11-03T10:48:42.943Z,89.82
2022-11-03T10:49:44.376Z,64.45
2022-11-03T10:50:45.863Z,58.20
2022-11-03T10:51:49.249Z,61.45
2022-11-03T10:52:51.231Z,38.92
2022-11-03T10:53:52.713Z,52.40
2022-11-03T10:54:57.525Z,47.67
2022-11-03T10:55:59.541Z,38.03
2022-11-03T10:57:01.252Z,45.47
2022-11-03T10:58:02.752Z,39.72
2022-11-03T10:59:05.613Z,45.58
2022-11-03T11:00:12.740Z,48.17
2022-11-03T11:01:14.354Z,51.13
2022-11-03T11:02:19.299Z,40.33
2022-11-03T11:03:21.213Z,53.75
2022-11-03T11:04:22.857Z,61.17
2022-11-03T11:05:24.747Z,41.08
2022-11-03T11:06:28.405Z,45.85
2022-11-03T11:07:34.432Z,46.92
2022-11-03T11:08:37.498Z,37.65
2022-11-03T11:09:38.964Z,42.63
2022-11-03T11:10:44.280Z,39.33
2022-11-03T11:11:59.167Z,40.05
2022-11-03T11:13:06.870Z,38.95
2022-11-03T11:14:23.525Z,40.63
2022-11-03T11:15:40.977Z,40.10
2022-11-03T11:16:50.436Z,39.63
2022-11-03T11:17:51.895Z,42.85
2022-11-03T11:19:11.228Z,43.85
2022-11-03T11:20:34.931Z,39.15
2022-11-03T11:22:00.541Z,36.28
2022-11-03T11:23:46.705Z,35.78
2022-11-03T11:24:59.299Z,50.85
2022-11-03T11:26:14.266Z,38.38
2022-11-03T11:27:58.322Z,48.38
2022-11-03T11:29:42.854Z,37.55
2022-11-03T11:31:00.507Z,39.03
2022-11-03T11:32:50.751Z,43.72
2022-11-03T11:34:40.651Z,37.33
2022-11-03T11:36:26.557Z,46.15
2022-11-03T11:37:36.036Z,57.53
2022-11-03T11:39:04.464Z,91.22
2022-11-03T11:40:13.197Z,95.70
2022-11-03T11:41:14.691Z,147.05
2022-11-03T11:42:17.092Z,90.93
2022-11-03T11:43:26.176Z,215.52
2022-11-03T11:44:47.619Z,181.45
2022-11-03T11:46:38.451Z,111.03
2022-11-03T11:47:48.498Z,65.93
2022-11-03T11:48:50.758Z,60.17
2022-11-03T11:50:11.991Z,51.58
2022-11-03T11:51:13.498Z,97.22
2022-11-03T11:52:18.766Z,72.10
2022-11-03T11:53:26.137Z,39.83
2022-11-03T11:54:30.618Z,48.33
2022-11-03T11:55:38.312Z,40.58
2022-11-03T11:56:42.511Z,41.60
2022-11-03T11:57:44.762Z,56.80
2022-11-03T11:58:48.961Z,41.30
2022-11-03T11:59:51.482Z,39.85
2022-11-03T12:00:58.266Z,48.30
2022-11-03T12:02:01.886Z,122.50
2022-11-03T12:03:06.308Z,37.38
2022-11-03T12:05:23.290Z,46.58
2022-11-03T12:06:34.257Z,35.90
2022-11-03T12:07:36.666Z,26.85
2022-11-03T12:08:38.338Z,38.83
2022-11-03T12:09:40.088Z,28.40
2022-11-03T12:10:52.455Z,39.22
2022-11-03T12:11:56.497Z,38.42
2022-11-03T12:12:59.894Z,36.83
2022-11-03T12:14:01.373Z,38.72
2022-11-03T12:15:03.059Z,30.17
2022-11-03T12:16:04.993Z,37.70
2022-11-03T12:17:33.265Z,28.98
2022-11-03T12:18:40.793Z,31.08
2022-11-03T12:19:45.920Z,35.35
2022-11-03T12:20:47.385Z,29.30
2022-11-03T12:21:49.933Z,35.28
2022-11-03T12:22:51.379Z,41.60
2022-11-03T12:23:52.841Z,34.78
2022-11-03T12:24:55.155Z,29.90
2022-11-03T12:25:56.597Z,44.17
2022-11-03T12:26:58.581Z,40.30
2022-11-03T12:28:00.046Z,49.88
2022-11-03T12:29:01.514Z,53.55
2022-11-03T12:30:06.726Z,46.75
2022-11-03T12:31:08.204Z,60.13
2022-11-03T12:32:25.594Z,69.40
2022-11-03T12:33:32.637Z,58.80
2022-11-03T12:34:34.043Z,63.13
2022-11-03T12:35:35.487Z,59.22
2022-11-03T12:36:36.908Z,45.60
2022-11-03T12:37:38.368Z,67.30
2022-11-03T12:38:39.780Z,70.40
2022-11-03T12:39:41.402Z,103.70
2022-11-03T12:40:42.851Z,96.05
2022-11-03T12:41:44.292Z,106.90
2022-11-03T12:42:45.737Z,92.05
2022-11-03T12:43:48.493Z,96.97
2022-11-03T12:44:50.251Z,97.65
2022-11-03T12:45:51.691Z,94.97
2022-11-03T12:46:53.128Z,73.38
2022-11-03T12:47:54.596Z,88.63
2022-11-03T12:48:57.377Z,77.57
2022-11-03T12:49:58.830Z,104.90
2022-11-03T12:51:00.273Z,68.85
2022-11-03T12:52:05.355Z,68.30
2022-11-03T12:53:09.797Z,52.95
2022-11-03T12:54:11.438Z,66.63
2022-11-03T12:55:12.971Z,61.55
2022-11-03T12:56:15.306Z,54.92
2022-11-03T12:57:16.909Z,47.10
2022-11-03T12:58:18.373Z,42.58
2022-11-03T12:59:19.853Z,49.97
2022-11-03T13:00:21.529Z,48.22
2022-11-03T13:01:23.083Z,41.88
2022-11-03T13:02:24.828Z,43.85
2022-11-03T13:03:26.523Z,57.35
2022-11-03T13:04:29.314Z,48.97
2022-11-03T13:05:30.759Z,57.08
2022-11-03T13:06:32.843Z,47.15
2022-11-03T13:07:35.120Z,55.58
2022-11-03T13:08:37.715Z,52.28
2022-11-03T13:09:39.236Z,46.17
2022-11-03T13:10:40.663Z,71.72
2022-11-03T13:11:42.087Z,51.90
2022-11-03T13:12:43.560Z,50.40
2022-11-03T13:13:45.229Z,44.78
2022-11-03T13:14:48.726Z,59.92
2022-11-03T13:15:50.502Z,49.53
2022-11-03T13:16:51.975Z,46.47
2022-11-03T13:18:12.210Z,36.67
2022-11-03T13:19:14.871Z,50.15
2022-11-03T13:20:17.712Z,39.33
2022-11-03T13:21:19.159Z,41.25
2022-11-03T13:22:20.783Z,38.90
2022-11-03T13:23:23.247Z,38.85
2022-11-03T13:24:24.795Z,47.88
2022-11-03T13:25:26.347Z,37.60
2022-11-03T13:26:27.893Z,31.27
2022-11-03T13:27:29.331Z,34.15
2022-11-03T13:28:30.776Z,38.92
2022-11-03T13:29:35.312Z,42.47
2022-11-03T13:30:37.257Z,35.45
2022-11-03T13:31:38.911Z,32.00
2022-11-03T13:32:40.319Z,35.15
2022-11-03T13:33:41.739Z,33.95
2022-11-03T13:34:43.225Z,35.13
2022-11-03T13:35:46.059Z,34.45
2022-11-03T13:36:47.613Z,34.80
2022-11-03T13:37:49.082Z,31.17